Time;durP1;ratioP1;P1;durP2;ratioP2;P2;SDS_P1;SDS_P2;PMS_P1;PMS_P2;Temp;Humidity;BMP_temperature;BMP_pressure;BME280_temperature;BME280_humidity;BME280_pressure;Samples;Min_cycle;Max_cycle;Signal;HPM_P1;HPM_P2
2023/09/02 00:01:38;;;;;;;4.77;3.97;;;;;;;18.47;69.62;96395.13;5067490;28;20257;-69
2023/09/02 00:04:03;;;;;;;7.27;4.00;;;;;;;18.41;69.71;96395.59;5066882;28;20194;-69
2023/09/02 00:06:29;;;;;;;7.93;3.77;;;;;;;18.39;69.73;96393.06;5066927;28;20585;-68
2023/09/02 00:08:55;;;;;;;6.47;3.67;;;;;;;18.28;70.22;96393.00;5066764;28;20635;-69
2023/09/02 00:11:20;;;;;;;5.93;3.40;;;;;;;18.32;70.29;96398.94;5066964;28;20170;-69
2023/09/02 00:13:45;;;;;;;7.27;3.20;;;;;;;18.24;70.35;96394.22;5066640;28;20239;-69
2023/09/02 00:16:13;;;;;;;6.57;4.00;;;;;;;18.24;70.54;96394.22;5066604;28;20550;-69
2023/09/02 00:18:38;;;;;;;6.73;3.80;;;;;;;18.28;70.51;96395.66;5066609;28;20820;-68
2023/09/02 00:21:04;;;;;;;4.97;3.10;;;;;;;18.27;70.27;96399.28;5066675;28;20414;-69
2023/09/02 00:23:31;;;;;;;4.60;3.73;;;;;;;18.30;69.88;96403.53;5066419;28;20673;-69
2023/09/02 00:25:57;;;;;;;5.73;2.97;;;;;;;18.26;69.84;96399.41;5066772;28;20272;-69
2023/09/02 00:28:22;;;;;;;5.50;3.00;;;;;;;18.22;69.72;96403.28;5066745;28;20492;-70
2023/09/02 00:30:47;;;;;;;4.30;2.90;;;;;;;18.17;69.82;96396.47;5049015;28;20222;-69
2023/09/02 00:33:13;;;;;;;3.40;2.73;;;;;;;18.11;70.15;96404.88;5046552;28;20252;-68
2023/09/02 00:35:38;;;;;;;5.87;3.30;;;;;;;18.02;70.26;96397.59;5046704;28;20194;-68
2023/09/02 00:38:03;;;;;;;7.47;3.03;;;;;;;18.03;70.32;96409.94;5046908;28;20205;-68
2023/09/02 00:40:29;;;;;;;5.77;3.13;;;;;;;18.01;70.40;96403.06;5046678;28;20958;-69
2023/09/02 00:42:57;;;;;;;4.93;3.23;;;;;;;17.97;70.54;96403.25;5028066;28;20210;-69
2023/09/02 00:45:23;;;;;;;6.10;2.70;;;;;;;17.95;70.53;96404.31;5046394;28;20429;-70
2023/09/02 00:47:53;;;;;;;5.10;2.93;;;;;;;17.73;71.36;96397.91;5046408;28;20463;-69
2023/09/02 00:50:19;;;;;;;5.23;2.87;;;;;;;17.81;71.05;96396.53;5046134;28;20467;-69
2023/09/02 00:52:46;;;;;;;8.03;3.43;;;;;;;17.81;71.30;96408.00;5046278;28;20409;-69
2023/09/02 00:55:12;;;;;;;4.87;3.23;;;;;;;17.81;71.26;96401.84;5046229;28;20501;-67
2023/09/02 00:57:38;;;;;;;8.03;3.17;;;;;;;17.80;71.27;96405.44;5046222;28;20457;-68
2023/09/02 01:00:04;;;;;;;3.60;3.13;;;;;;;17.75;71.58;96409.25;5046434;28;20185;-68
2023/09/02 01:02:30;;;;;;;6.20;3.70;;;;;;;17.76;71.70;96412.75;5028054;28;20166;-69
2023/09/02 01:04:58;;;;;;;5.77;3.27;;;;;;;17.73;71.53;96405.03;5046097;28;20437;-69
2023/09/02 01:07:25;;;;;;;8.20;2.70;;;;;;;17.70;71.53;96410.56;5046266;28;20539;-68
2023/09/02 01:09:51;;;;;;;4.77;2.53;;;;;;;17.64;71.56;96409.19;5046364;28;20413;-68
2023/09/02 01:12:17;;;;;;;5.80;3.10;;;;;;;17.65;71.41;96413.53;5046623;28;20416;-69
2023/09/02 01:14:43;;;;;;;3.70;2.77;;;;;;;17.53;72.04;96412.63;5045911;28;20210;-69
2023/09/02 01:17:08;;;;;;;5.37;3.03;;;;;;;17.58;71.87;96411.44;5046483;28;20510;-70
2023/09/02 01:19:34;;;;;;;4.87;3.30;;;;;;;17.54;71.96;96410.81;5046209;28;20174;-69
2023/09/02 01:22:37;;;;;;;11.90;3.90;;;;;;;17.53;72.18;96414.44;5028026;28;20190;-69
2023/09/02 01:25:11;;;;;;;5.60;3.50;;;;;;;17.50;72.16;96417.28;5027451;28;20937;-69
2023/09/02 01:27:42;;;;;;;8.97;3.53;;;;;;;17.44;72.58;96415.94;5046020;28;20508;-69
2023/09/02 01:30:26;;;;;;;8.30;3.67;;;;;;;17.42;72.64;96415.19;5057896;28;20428;-69
2023/09/02 01:32:53;;;;;;;4.10;3.00;;;;;;;17.42;72.64;96417.00;5065822;28;20408;-68
2023/09/02 01:35:24;;;;;;;5.13;3.27;;;;;;;17.42;72.27;96412.53;5065964;28;20424;-70
2023/09/02 01:37:52;;;;;;;3.90;3.03;;;;;;;17.32;72.94;96419.44;5066267;28;20451;-70
2023/09/02 01:40:24;;;;;;;5.17;3.03;;;;;;;17.30;72.95;96418.72;5066203;28;20417;-69
2023/09/02 01:42:57;;;;;;;8.07;3.30;;;;;;;17.28;73.22;96417.97;5066428;28;20463;-69
2023/09/02 01:45:27;;;;;;;5.17;2.60;;;;;;;17.26;73.11;96417.22;5066263;28;20439;-70
2023/09/02 01:47:53;;;;;;;6.67;3.10;;;;;;;17.21;73.28;96422.84;5068713;28;20435;-70
2023/09/02 01:50:23;;;;;;;4.77;2.87;;;;;;;17.24;73.27;96424.44;5071026;28;21212;-68
2023/09/02 01:52:49;;;;;;;5.03;3.53;;;;;;;17.17;73.50;96429.31;5066340;28;20253;-69
2023/09/02 01:55:16;;;;;;;11.10;3.80;;;;;;;17.21;72.99;96427.31;5065873;28;20613;-69
2023/09/02 01:57:42;;;;;;;5.50;3.10;;;;;;;17.06;73.88;96435.38;5065572;28;20287;-68
2023/09/02 02:00:08;;;;;;;5.80;2.73;;;;;;;17.06;73.70;96438.03;5065808;28;20914;-69
2023/09/02 02:02:36;;;;;;;6.20;3.43;;;;;;;17.00;73.58;96442.91;5066015;28;20309;-69
2023/09/02 02:05:05;;;;;;;8.87;2.60;;;;;;;17.06;73.30;96438.03;5065729;28;20861;-70
2023/09/02 02:07:36;;;;;;;5.80;2.87;;;;;;;16.99;73.67;96431.47;5072737;28;20617;-69
2023/09/02 02:10:06;;;;;;;5.53;2.70;;;;;;;16.83;74.19;96436.97;5066393;28;20781;-69
2023/09/02 02:12:31;;;;;;;6.33;2.50;;;;;;;16.95;73.85;96434.41;5066011;28;20469;-69
2023/09/02 02:14:57;;;;;;;4.97;2.90;;;;;;;17.09;72.92;96431.66;5066337;28;20940;-68
2023/09/02 02:17:22;;;;;;;6.90;3.40;;;;;;;17.18;72.56;96446.09;5069036;28;20213;-68
2023/09/02 02:19:48;;;;;;;3.60;2.70;;;;;;;17.23;72.21;96433.34;5069475;28;20174;-69
2023/09/02 02:22:14;;;;;;;5.20;3.97;;;;;;;17.09;72.48;96429.84;5069181;28;20182;-68
2023/09/02 02:24:39;;;;;;;9.87;3.33;;;;;;;17.18;72.02;96440.78;5069479;28;20633;-68
2023/09/02 02:27:04;;;;;;;6.23;2.70;;;;;;;17.05;72.14;96431.00;5070164;28;20194;-69
2023/09/02 02:29:30;;;;;;;5.03;2.70;;;;;;;17.09;72.13;96431.66;5062998;28;20603;-68
2023/09/02 02:31:55;;;;;;;5.00;3.00;;;;;;;17.08;71.98;96438.78;5050152;28;20220;-68
2023/09/02 02:34:23;;;;;;;6.13;3.27;;;;;;;17.11;72.05;96435.91;5048838;28;20555;-69
2023/09/02 02:36:49;;;;;;;4.30;2.77;;;;;;;17.16;71.47;96437.41;5048850;28;20179;-70
2023/09/02 02:39:14;;;;;;;7.70;2.70;;;;;;;17.14;71.25;96435.69;5049033;28;20409;-68
2023/09/02 02:41:40;;;;;;;7.03;3.20;;;;;;;17.13;71.79;96435.81;5030591;28;20174;-69
2023/09/02 02:44:05;;;;;;;5.63;3.00;;;;;;;17.07;71.64;96439.72;5048110;28;20229;-69
2023/09/02 02:46:31;;;;;;;10.03;3.00;;;;;;;17.00;71.93;96435.78;5048474;28;20636;-69
2023/09/02 02:48:56;;;;;;;4.10;2.60;;;;;;;16.97;72.34;96433.38;5048652;28;20185;-69
2023/09/02 02:51:21;;;;;;;4.60;3.60;;;;;;;16.96;71.92;96436.97;5048276;28;20178;-69
2023/09/02 02:53:47;;;;;;;5.20;3.70;;;;;;;16.96;71.86;96438.75;5048172;28;20179;-70
2023/09/02 02:56:12;;;;;;;3.70;2.90;;;;;;;16.96;71.68;96429.03;5048896;28;20236;-70
2023/09/02 02:58:38;;;;;;;4.47;3.20;;;;;;;16.92;72.21;96432.84;5048737;28;20571;-68
2023/09/02 03:01:05;;;;;;;3.37;2.70;;;;;;;16.89;72.00;96430.38;5048644;28;20247;-70
2023/09/02 03:03:31;;;;;;;3.23;2.83;;;;;;;16.84;72.42;96429.84;5048215;28;20181;-69
2023/09/02 03:06:00;;;;;;;5.60;3.23;;;;;;;16.89;72.14;96433.03;5049485;28;20452;-69
2023/09/02 03:08:26;;;;;;;3.43;3.03;;;;;;;16.77;72.85;96431.19;5054210;28;20413;-69
2023/09/02 03:11:03;;;;;;;5.23;3.40;;;;;;;16.53;73.65;96431.91;5030197;28;20424;-69
2023/09/02 03:13:33;;;;;;;7.43;3.70;;;;;;;16.57;73.62;96432.56;5048043;28;20413;-69
2023/09/02 03:15:59;;;;;;;19.13;4.47;;;;;;;16.63;73.31;96427.69;5048145;28;20451;-69
2023/09/02 03:18:25;;;;;;;3.80;3.30;;;;;;;16.71;72.97;96435.97;5048112;28;20464;-69
2023/09/02 03:20:50;;;;;;;11.90;5.87;;;;;;;16.66;73.05;96435.41;5048297;28;20403;-69
2023/09/02 03:23:16;;;;;;;11.33;7.07;;;;;;;16.76;72.47;96437.47;5047907;28;20175;-69
2023/09/02 03:25:41;;;;;;;5.47;3.17;;;;;;;16.82;72.32;96440.56;5047946;28;20179;-68
2023/09/02 03:28:07;;;;;;;6.23;3.40;;;;;;;16.81;72.41;96435.38;5047439;28;20915;-69
2023/09/02 03:30:33;;;;;;;5.67;3.30;;;;;;;16.70;72.47;96433.41;5063243;28;20182;-69
2023/09/02 03:32:59;;;;;;;3.60;3.00;;;;;;;16.74;72.37;96437.53;5049528;28;20174;-69
2023/09/02 03:35:25;;;;;;;9.17;3.43;;;;;;;16.82;71.88;96440.56;5067668;28;20214;-69
2023/09/02 03:37:51;;;;;;;11.30;3.13;;;;;;;16.83;71.65;96447.56;5067641;28;20447;-70
2023/09/02 03:40:16;;;;;;;5.27;3.27;;;;;;;16.76;72.06;96446.25;5049560;28;20408;-68
2023/09/02 03:42:41;;;;;;;5.30;3.00;;;;;;;16.75;71.63;96441.91;5067778;28;20205;-68
2023/09/02 03:45:09;;;;;;;8.63;3.53;;;;;;;16.70;71.54;96447.53;5067207;28;20319;-69
2023/09/02 03:47:35;;;;;;;4.17;2.80;;;;;;;16.71;71.96;96443.06;5067333;28;20177;-68
2023/09/02 03:50:01;;;;;;;5.10;3.63;;;;;;;16.85;71.40;96458.06;5067292;28;20465;-69
2023/09/02 03:52:26;;;;;;;5.67;3.90;;;;;;;16.64;72.09;96453.22;5067276;28;20170;-68
2023/09/02 03:54:51;;;;;;;4.13;3.70;;;;;;;16.45;72.83;96450.97;5067027;28;20356;-68
2023/09/02 03:57:17;;;;;;;5.53;4.33;;;;;;;16.35;73.02;96446.38;5067232;28;20289;-68
2023/09/02 03:59:42;;;;;;;7.43;4.30;;;;;;;16.36;73.12;96454.22;5067211;28;20235;-69
2023/09/02 04:02:07;;;;;;;8.97;2.90;;;;;;;16.32;73.29;96457.16;5066994;28;20166;-69
2023/09/02 04:04:33;;;;;;;6.30;3.73;;;;;;;16.26;73.15;96456.63;5066420;28;20309;-69
2023/09/02 04:06:58;;;;;;;4.43;2.70;;;;;;;16.31;72.96;96461.63;5066974;28;20182;-68
2023/09/02 04:09:24;;;;;;;5.13;2.87;;;;;;;16.29;73.26;96460.88;5066605;28;20197;-69
2023/09/02 04:11:49;;;;;;;7.10;4.07;;;;;;;16.35;72.90;96467.56;5066898;28;20177;-70
2023/09/02 04:14:15;;;;;;;8.70;3.80;;;;;;;16.24;73.70;96468.28;5066554;28;20708;-70
2023/09/02 04:16:40;;;;;;;12.37;4.60;;;;;;;16.18;73.33;96464.22;5067055;28;20267;-69
2023/09/02 04:19:05;;;;;;;15.93;5.20;;;;;;;16.16;73.78;96475.84;5066883;28;20170;-68
2023/09/02 04:21:31;;;;;;;14.17;3.40;;;;;;;16.19;73.68;96462.44;5067001;28;20174;-69
2023/09/02 04:23:56;;;;;;;7.67;3.77;;;;;;;16.20;73.48;96464.97;5066268;28;20170;-70
2023/09/02 04:26:22;;;;;;;8.80;3.60;;;;;;;16.13;73.31;96463.66;5066630;28;20205;-70
2023/09/02 04:28:48;;;;;;;16.23;4.53;;;;;;;16.21;73.51;96471.13;5065355;28;20263;-70
2023/09/02 04:31:14;;;;;;;9.17;3.63;;;;;;;16.18;73.28;96471.31;5046421;28;20170;-70
2023/09/02 04:33:39;;;;;;;6.80;3.33;;;;;;;16.22;72.83;96472.81;5046360;28;20428;-69
2023/09/02 04:36:05;;;;;;;17.87;4.40;;;;;;;16.34;72.29;96471.16;5054054;28;20213;-70
2023/09/02 04:38:31;;;;;;;8.33;3.23;;;;;;;16.34;72.36;96479.09;5046106;28;20207;-70
2023/09/02 04:40:56;;;;;;;8.40;3.57;;;;;;;16.37;71.63;96476.25;5046589;28;20179;-69
2023/09/02 04:43:22;;;;;;;7.87;3.73;;;;;;;16.27;72.21;96476.84;5046456;28;20195;-70
2023/09/02 04:45:48;;;;;;;6.63;3.10;;;;;;;16.21;72.41;96482.56;5046283;28;20190;-69
2023/09/02 04:48:14;;;;;;;13.00;3.10;;;;;;;16.22;72.22;96478.09;5046279;28;20467;-69
2023/09/02 04:50:40;;;;;;;6.03;3.20;;;;;;;16.22;72.16;96484.25;5047268;28;20265;-70
2023/09/02 04:53:07;;;;;;;11.07;3.77;;;;;;;16.26;72.38;96477.81;5047280;28;20186;-70
2023/09/02 04:55:33;;;;;;;5.03;2.60;;;;;;;16.22;72.01;96484.25;5051843;28;20222;-71
2023/09/02 04:57:58;;;;;;;6.40;3.87;;;;;;;16.32;71.50;96481.84;5050936;28;20965;-69
2023/09/02 05:00:26;;;;;;;7.83;3.77;;;;;;;16.41;71.39;96485.69;5046699;28;20249;-69
2023/09/02 05:02:51;;;;;;;8.27;4.40;;;;;;;16.44;71.06;96488.13;5046683;28;20179;-69
2023/09/02 05:05:18;;;;;;;10.40;4.63;;;;;;;16.40;71.13;96484.84;5046686;28;20425;-69
2023/09/02 05:07:44;;;;;;;5.80;3.47;;;;;;;16.50;70.91;96490.38;5048037;28;20194;-70
2023/09/02 05:10:12;;;;;;;10.30;3.20;;;;;;;16.49;70.45;96491.34;5047042;28;20514;-69
2023/09/02 05:12:37;;;;;;;5.03;3.20;;;;;;;16.55;70.46;96495.38;5046574;28;20237;-70
2023/09/02 05:15:03;;;;;;;9.17;3.13;;;;;;;16.61;70.12;96495.81;5046220;28;20448;-69
2023/09/02 05:17:30;;;;;;;4.23;2.63;;;;;;;16.52;69.80;96491.13;5047206;28;20198;-69
2023/09/02 05:19:55;;;;;;;4.30;3.67;;;;;;;16.68;69.83;96501.56;5046253;28;20209;-70
2023/09/02 05:22:21;;;;;;;7.43;3.50;;;;;;;16.63;69.52;96501.88;5054696;28;20413;-69
2023/09/02 05:24:46;;;;;;;9.67;4.23;;;;;;;16.78;68.72;96502.66;5036439;28;20730;-71
2023/09/02 05:27:11;;;;;;;6.83;3.53;;;;;;;16.77;69.02;96506.25;5048018;28;20182;-70
2023/09/02 05:29:37;;;;;;;6.80;2.77;;;;;;;16.86;68.85;96508.31;5050968;28;20228;-72
2023/09/02 05:32:02;;;;;;;5.90;3.60;;;;;;;17.53;66.86;96509.94;5047435;28;20182;-70
2023/09/02 05:34:28;;;;;;;5.73;3.23;;;;;;;18.67;62.35;96505.28;5044883;28;20278;-70
2023/09/02 05:36:53;;;;;;;3.87;3.03;;;;;;;19.53;59.34;96504.03;5032843;28;20175;-70
2023/09/02 05:39:18;;;;;;;4.63;2.70;;;;;;;20.16;57.53;96509.75;5043744;28;20217;-71
2023/09/02 05:41:45;;;;;;;5.97;2.70;;;;;;;20.69;55.79;96509.88;5047200;28;20171;-70
2023/09/02 05:44:10;;;;;;;6.03;3.00;;;;;;;21.50;53.25;96498.69;5045736;28;20215;-70
2023/09/02 05:46:36;;;;;;;7.30;3.00;;;;;;;21.81;52.35;96496.00;5045965;28;20444;-70
2023/09/02 05:49:01;;;;;;;3.67;2.47;;;;;;;22.22;51.30;96496.88;5045647;28;20250;-70
2023/09/02 05:51:28;;;;;;;7.80;2.67;;;;;;;22.38;50.70;96499.84;5049973;28;20233;-70
2023/09/02 05:53:53;;;;;;;16.70;3.63;;;;;;;22.80;49.56;96491.59;5048572;28;20277;-70
2023/09/02 05:56:19;;;;;;;9.00;3.67;;;;;;;22.80;49.62;96502.28;5049555;28;20437;-70
2023/09/02 05:58:44;;;;;;;7.93;3.10;;;;;;;23.09;49.03;96507.66;5049506;28;20191;-70
2023/09/02 06:01:10;;;;;;;4.77;2.70;;;;;;;23.44;47.68;96507.03;5049387;28;20174;-70
2023/09/02 06:03:35;;;;;;;7.10;3.43;;;;;;;23.33;48.25;96506.34;5048952;28;20183;-69
2023/09/02 06:06:00;;;;;;;3.80;2.30;;;;;;;23.34;48.33;96500.88;5048961;28;20568;-69
2023/09/02 06:08:27;;;;;;;3.73;2.30;;;;;;;23.04;49.13;96500.06;5049129;28;20163;-69
2023/09/02 06:10:57;;;;;;;3.13;2.33;;;;;;;23.11;48.90;96496.81;5049126;28;20185;-69
2023/09/02 06:13:22;;;;;;;5.33;2.70;;;;;;;23.42;48.06;96495.63;5048934;28;20958;-68
2023/09/02 06:15:48;;;;;;;6.10;3.03;;;;;;;23.35;48.60;96497.19;5048994;28;20499;-68
2023/09/02 06:18:13;;;;;;;10.33;3.50;;;;;;;23.75;47.88;96498.81;5048851;28;20203;-70
2023/09/02 06:20:38;;;;;;;8.93;2.77;;;;;;;23.48;48.10;96496.03;5048972;28;20174;-70
2023/09/02 06:23:04;;;;;;;4.80;3.20;;;;;;;23.66;47.92;96495.13;5048796;28;20643;-71
2023/09/02 06:25:29;;;;;;;5.57;3.77;;;;;;;23.68;47.87;96492.31;5048961;28;20195;-70
2023/09/02 06:27:54;;;;;;;5.47;3.30;;;;;;;23.49;48.06;96487.84;5049094;28;20193;-69
2023/09/02 06:30:20;;;;;;;9.80;2.77;;;;;;;23.56;47.79;96499.69;5061017;28;20227;-69
2023/09/02 06:32:45;;;;;;;4.50;2.80;;;;;;;23.70;47.70;96501.06;5038809;28;20640;-70
2023/09/02 06:35:14;;;;;;;10.03;3.93;;;;;;;23.84;47.43;96491.72;5048709;28;20287;-69
2023/09/02 06:37:41;;;;;;;4.27;2.67;;;;;;;23.75;47.54;96500.66;5048709;28;20286;-70
2023/09/02 06:40:06;;;;;;;4.27;2.53;;;;;;;24.07;46.97;96494.84;5048572;28;20417;-70
2023/09/02 06:42:32;;;;;;;4.20;3.03;;;;;;;23.80;47.77;96495.69;5046479;28;21200;-70
2023/09/02 06:44:57;;;;;;;6.10;2.70;;;;;;;24.52;45.98;96491.38;5033169;28;20191;-70
2023/09/02 06:47:23;;;;;;;6.23;3.07;;;;;;;24.45;45.76;96493.78;5045914;28;20194;-69
2023/09/02 06:49:49;;;;;;;5.80;2.93;;;;;;;24.61;45.60;96494.97;5048658;28;20178;-69
2023/09/02 06:52:14;;;;;;;8.10;4.07;;;;;;;24.79;45.62;96498.53;5048906;28;20416;-69
2023/09/02 06:54:40;;;;;;;3.90;2.50;;;;;;;24.78;45.38;96504.03;5048441;28;20194;-70
2023/09/02 06:57:05;;;;;;;7.07;3.30;;;;;;;24.84;45.37;96506.13;5048460;28;20242;-70
2023/09/02 06:59:32;;;;;;;4.70;2.80;;;;;;;25.01;45.65;96504.41;5046634;28;20900;-70
2023/09/02 07:01:58;;;;;;;5.57;3.40;;;;;;;25.25;44.98;96509.16;5047219;28;20186;-69
2023/09/02 07:04:23;;;;;;;8.03;3.33;;;;;;;25.35;44.53;96505.41;5047472;28;20452;-68
2023/09/02 07:06:48;;;;;;;12.13;3.43;;;;;;;25.50;44.42;96510.22;5046795;28;20270;-69
2023/09/02 07:09:14;;;;;;;6.20;3.00;;;;;;;25.74;44.02;96507.66;5047311;28;20175;-69
2023/09/02 07:11:39;;;;;;;4.67;2.80;;;;;;;25.55;44.51;96514.09;5048543;28;20686;-69
2023/09/02 07:14:04;;;;;;;6.57;2.87;;;;;;;25.53;44.86;96515.25;5047873;28;21267;-70
2023/09/02 07:16:30;;;;;;;4.83;3.50;;;;;;;25.86;44.25;96515.47;5048382;28;20171;-68
2023/09/02 07:18:55;;;;;;;4.60;3.27;;;;;;;25.69;44.47;96520.75;5048244;28;20199;-69
2023/09/02 07:21:24;;;;;;;7.70;3.27;;;;;;;25.95;43.85;96518.06;5048493;28;20198;-68
2023/09/02 07:23:50;;;;;;;6.97;3.60;;;;;;;25.81;44.49;96515.94;5047799;28;20241;-68
2023/09/02 07:26:16;;;;;;;4.77;4.20;;;;;;;26.02;44.55;96517.44;5055585;28;20733;-69
2023/09/02 07:28:42;;;;;;;5.30;3.63;;;;;;;25.51;45.04;96518.13;5067861;28;20404;-68
2023/09/02 07:31:11;;;;;;;5.47;3.23;;;;;;;25.71;45.45;96525.97;5047712;28;20187;-68
2023/09/02 07:33:36;;;;;;;5.47;3.27;;;;;;;26.10;44.34;96520.16;5047345;28;20917;-67
2023/09/02 07:36:12;;;;;;;6.00;3.10;;;;;;;26.19;44.58;96524.56;5047293;28;20425;-67
2023/09/02 07:38:39;;;;;;;11.80;3.83;;;;;;;26.40;44.17;96527.66;5047664;28;20293;-68
2023/09/02 07:41:05;;;;;;;8.77;4.93;;;;;;;26.56;43.58;96537.69;5047298;28;20467;-68
2023/09/02 07:43:31;;;;;;;12.73;4.10;;;;;;;26.69;43.08;96531.81;5047310;28;20846;-68
2023/09/02 07:45:57;;;;;;;5.57;3.33;;;;;;;26.71;43.38;96529.81;5047390;28;20240;-69
2023/09/02 07:48:22;;;;;;;8.10;3.70;;;;;;;27.06;42.68;96527.84;5047012;28;20244;-69
2023/09/02 07:50:48;;;;;;;10.57;3.63;;;;;;;27.02;42.72;96526.50;5047038;28;20551;-68
2023/09/02 07:53:14;;;;;;;5.93;3.47;;;;;;;27.06;43.00;96521.63;5047058;28;20174;-68
2023/09/02 07:55:40;;;;;;;8.87;3.67;;;;;;;27.13;43.13;96528.84;5047995;28;20614;-70
2023/09/02 07:58:05;;;;;;;5.40;3.40;;;;;;;27.35;42.71;96535.44;5047162;28;20217;-68
2023/09/02 08:00:33;;;;;;;12.90;4.40;;;;;;;27.36;42.75;96539.00;5047424;28;20182;-70
2023/09/02 08:02:59;;;;;;;9.30;3.90;;;;;;;27.26;42.62;96547.28;5047366;28;20181;-68
2023/09/02 08:05:24;;;;;;;12.40;4.73;;;;;;;26.84;43.11;96550.03;5047067;28;20429;-68
2023/09/02 08:07:50;;;;;;;5.23;3.77;;;;;;;25.89;45.56;96555.50;5046975;28;20644;-69
2023/09/02 08:10:15;;;;;;;5.37;2.93;;;;;;;26.17;45.22;96558.84;5047008;28;20166;-69
2023/09/02 08:12:42;;;;;;;5.53;3.40;;;;;;;26.67;44.34;96557.22;5046573;28;20171;-69
2023/09/02 08:15:09;;;;;;;4.47;2.93;;;;;;;26.74;43.61;96553.72;5046569;28;20805;-69
2023/09/02 08:17:39;;;;;;;6.60;3.17;;;;;;;27.12;43.06;96554.13;5046670;28;20952;-68
2023/09/02 08:20:05;;;;;;;10.50;3.57;;;;;;;27.24;43.25;96563.59;5046449;28;20421;-68
2023/09/02 08:22:31;;;;;;;4.50;3.63;;;;;;;27.07;43.79;96561.84;5046813;28;20424;-69
2023/09/02 08:24:56;;;;;;;6.60;2.83;;;;;;;25.93;46.11;96562.25;5046419;28;20429;-69
2023/09/02 08:27:22;;;;;;;4.33;3.10;;;;;;;25.29;48.42;96570.47;5046982;28;20181;-68
2023/09/02 08:29:47;;;;;;;4.53;3.40;;;;;;;25.07;48.89;96566.41;5046928;28;20175;-69
2023/09/02 08:32:13;;;;;;;5.93;3.90;;;;;;;25.45;47.78;96566.25;5047337;28;20171;-69
2023/09/02 08:34:38;;;;;;;5.70;3.83;;;;;;;25.87;46.99;96569.13;5046363;28;20263;-69
2023/09/02 08:37:04;;;;;;;4.37;3.10;;;;;;;25.91;46.73;96564.25;5046626;28;20233;-69
2023/09/02 08:39:30;;;;;;;8.97;3.70;;;;;;;26.58;45.39;96557.19;5046815;28;20644;-68
2023/09/02 08:41:55;;;;;;;12.50;3.80;;;;;;;27.12;43.98;96554.13;5046584;28;20412;-69
2023/09/02 08:44:22;;;;;;;7.90;3.50;;;;;;;27.35;43.58;96557.00;5046185;28;20560;-69
2023/09/02 08:46:51;;;;;;;4.63;3.17;;;;;;;27.41;43.97;96555.53;5046681;28;20175;-69
2023/09/02 08:49:18;;;;;;;5.13;3.53;;;;;;;27.27;44.02;96556.19;5046441;28;20406;-69
2023/09/02 08:51:45;;;;;;;4.50;3.57;;;;;;;27.72;43.13;96550.25;5046202;28;20417;-69
2023/09/02 08:54:12;;;;;;;9.10;5.13;;;;;;;27.85;43.34;96549.75;5045999;28;20433;-68
2023/09/02 08:56:41;;;;;;;3.20;2.90;;;;;;;27.81;43.73;96553.78;5046390;28;20540;-70
2023/09/02 08:59:09;;;;;;;5.47;3.60;;;;;;;26.85;45.38;96559.81;5046206;28;20475;-69
2023/09/02 09:01:40;;;;;;;4.40;4.00;;;;;;;26.07;47.14;96568.88;5046346;28;20441;-70
2023/09/02 09:04:07;;;;;;;6.97;4.00;;;;;;;25.61;48.35;96569.06;5046118;28;20453;-69
2023/09/02 09:06:35;;;;;;;5.57;3.20;;;;;;;25.57;48.30;96570.38;5046370;28;20445;-69
2023/09/02 09:09:01;;;;;;;5.90;3.97;;;;;;;25.66;47.85;96566.75;5045866;28;20969;-70
2023/09/02 09:11:30;;;;;;;4.70;2.80;;;;;;;26.14;47.53;96567.25;5046045;28;20441;-70
2023/09/02 09:14:01;;;;;;;4.60;3.10;;;;;;;27.00;45.15;96563.50;5045373;28;20209;-69
2023/09/02 09:16:31;;;;;;;3.70;3.07;;;;;;;26.78;45.86;96568.53;5046033;28;20402;-70
2023/09/02 09:18:57;;;;;;;5.90;3.37;;;;;;;27.34;44.60;96563.44;5045668;28;21055;-69
2023/09/02 09:21:23;;;;;;;9.83;3.23;;;;;;;27.44;43.70;96569.47;5045902;28;20453;-69
2023/09/02 09:23:48;;;;;;;3.67;3.30;;;;;;;27.42;43.68;96571.50;5046232;28;20444;-70
2023/09/02 09:26:15;;;;;;;4.70;2.87;;;;;;;27.68;42.42;96565.09;5050644;28;20606;-67
2023/09/02 09:28:51;;;;;;;6.80;3.23;;;;;;;27.97;41.97;96569.13;5051156;28;20167;-67
2023/09/02 09:31:17;;;;;;;9.10;3.30;;;;;;;28.02;41.83;96570.31;5031410;28;20964;-69
2023/09/02 09:33:53;;;;;;;5.93;2.70;;;;;;;28.54;40.75;96568.13;5030487;28;20417;-69
2023/09/02 09:36:21;;;;;;;4.00;2.50;;;;;;;28.67;40.29;96568.41;5030224;28;20467;-69
2023/09/02 09:38:47;;;;;;;4.37;3.20;;;;;;;28.64;41.05;96568.75;5030264;28;20446;-69
2023/09/02 09:41:13;;;;;;;3.17;2.50;;;;;;;27.38;43.03;96575.56;5029958;28;20420;-69
2023/09/02 09:43:38;;;;;;;8.60;3.17;;;;;;;27.17;44.16;96570.63;5029865;28;20582;-69
2023/09/02 09:46:03;;;;;;;4.77;2.23;;;;;;;27.66;42.53;96567.97;5030065;28;20191;-70
2023/09/02 09:48:30;;;;;;;14.00;2.73;;;;;;;27.56;42.55;96566.44;5030145;28;20167;-70
2023/09/02 09:50:55;;;;;;;4.30;2.80;;;;;;;27.97;41.90;96569.13;5029851;28;20175;-69
2023/09/02 09:53:21;;;;;;;4.30;2.57;;;;;;;27.77;41.42;96566.75;5029734;28;20485;-68
2023/09/02 09:55:46;;;;;;;3.80;2.53;;;;;;;27.68;41.39;96567.78;5029720;28;20195;-69
2023/09/02 09:58:21;;;;;;;2.93;2.27;;;;;;;27.82;38.50;96568.94;5029529;28;20200;-70
2023/09/02 10:00:51;;;;;;;3.77;2.00;;;;;;;28.08;38.38;96576.84;5029452;28;20237;-70
2023/09/02 10:03:16;;;;;;;5.53;3.00;;;;;;;28.06;38.76;96577.03;5028928;28;20425;-70
2023/09/02 10:05:42;;;;;;;5.50;2.17;;;;;;;28.01;38.58;96582.09;5029567;28;20441;-70
2023/09/02 10:08:08;;;;;;;3.90;2.70;;;;;;;28.02;38.99;96577.56;5029375;28;20171;-69
2023/09/02 10:10:35;;;;;;;3.40;2.00;;;;;;;28.08;37.62;96574.16;5029546;28;20186;-69
2023/09/02 10:13:01;;;;;;;5.20;2.23;;;;;;;28.12;36.93;96566.56;5029663;28;20402;-69
2023/09/02 10:15:27;;;;;;;6.60;2.10;;;;;;;27.97;37.99;96558.31;5028508;28;20812;-69
2023/09/02 10:17:55;;;;;;;7.13;2.53;;;;;;;28.21;38.63;96565.53;5027697;28;20460;-70
2023/09/02 10:20:25;;;;;;;7.10;2.60;;;;;;;28.38;37.68;96564.44;5028133;28;20409;-69
2023/09/02 10:22:51;;;;;;;4.30;2.07;;;;;;;28.44;34.44;96571.88;5028145;28;20488;-68
2023/09/02 10:25:27;;;;;;;3.33;2.37;;;;;;;28.51;35.67;96569.31;5027729;28;20522;-69
2023/09/02 10:28:10;;;;;;;4.17;2.33;;;;;;;28.28;36.51;96566.53;5028193;28;20520;-69
2023/09/02 10:30:48;;;;;;;8.13;2.60;;;;;;;28.48;37.19;96561.56;5059667;28;20423;-68
2023/09/02 10:33:38;;;;;;;8.93;3.10;;;;;;;28.54;37.88;96563.59;5068329;28;20411;-69
2023/09/02 10:36:06;;;;;;;3.03;2.20;;;;;;;28.41;37.02;96561.41;5068628;28;20412;-69
2023/09/02 10:38:40;;;;;;;5.33;2.13;;;;;;;28.24;37.58;96562.47;5069035;28;20443;-70
2023/09/02 10:41:13;;;;;;;3.90;1.70;;;;;;;28.03;36.64;96561.19;5069086;28;20446;-68
2023/09/02 10:43:39;;;;;;;2.93;2.30;;;;;;;28.06;36.12;96563.56;5068135;28;20415;-68
2023/09/02 10:46:07;;;;;;;4.70;2.03;;;;;;;28.26;36.50;96564.00;5068252;28;20489;-68
2023/09/02 10:48:33;;;;;;;4.40;2.60;;;;;;;28.21;36.78;96568.25;5067634;28;20392;-69
2023/09/02 10:51:00;;;;;;;3.80;2.20;;;;;;;27.87;37.84;96558.53;5068492;28;20408;-67
2023/09/02 10:53:53;;;;;;;4.63;2.47;;;;;;;27.97;37.00;96564.59;5068211;28;20407;-69
2023/09/02 10:56:26;;;;;;;6.60;2.30;;;;;;;27.95;37.47;96569.31;5071796;28;20435;-70
2023/09/02 10:58:52;;;;;;;3.80;1.90;;;;;;;27.99;38.14;96567.97;5080294;28;20456;-68
2023/09/02 11:01:17;;;;;;;5.00;2.40;;;;;;;27.99;37.77;96561.69;5082123;28;20407;-70
2023/09/02 11:03:47;;;;;;;2.70;1.63;;;;;;;27.80;37.79;96565.59;5086554;28;20669;-70
2023/09/02 11:06:14;;;;;;;2.57;1.70;;;;;;;27.65;37.29;96566.28;5082119;28;20220;-71
2023/09/02 11:08:53;;;;;;;3.47;2.00;;;;;;;27.62;37.86;96574.72;5079196;28;20408;-68
2023/09/02 11:11:19;;;;;;;6.53;4.30;;;;;;;27.95;37.54;96565.78;5067456;28;20855;-68
2023/09/02 11:16:29;;;;;;;5.03;2.57;;;;;;;27.90;36.82;96552.81;5023719;28;20558;-69
2023/09/02 11:18:55;;;;;;;6.70;2.20;;;;;;;27.89;37.01;96556.50;5023555;28;20451;-70
2023/09/02 11:21:39;;;;;;;4.60;1.90;;;;;;;27.92;36.49;96550.75;5024303;28;20173;-69
2023/09/02 11:24:18;;;;;;;5.93;2.47;;;;;;;27.60;36.72;96552.47;5023967;28;20174;-68
2023/09/02 11:26:53;;;;;;;4.60;2.00;;;;;;;27.81;36.09;96551.09;5024135;28;20406;-68
2023/09/02 11:29:27;;;;;;;3.00;2.17;;;;;;;27.39;36.67;96546.75;5024541;28;20425;-67
2023/09/02 11:31:56;;;;;;;7.50;2.73;;;;;;;27.47;36.93;96552.13;5025102;28;20525;-69
2023/09/02 11:34:23;;;;;;;4.63;2.10;;;;;;;27.30;36.39;96547.75;5025446;28;21049;-70